sensor_id;sensor_type;location;lat;lon;timestamp;P1;durP1;ratioP1;P2;durP2;ratioP2
763;SDS011;5393;48.728;9.140;2022-09-09T00:07:15;2.13;;;1.10;;
763;SDS011;5393;48.728;9.140;2022-09-09T00:13:01;2.87;;;1.47;;
763;SDS011;5393;48.728;9.140;2022-09-09T00:16:03;4.00;;;1.37;;
763;SDS011;5393;48.728;9.140;2022-09-09T00:21:35;3.20;;;1.00;;
763;SDS011;5393;48.728;9.140;2022-09-09T00:24:24;3.00;;;1.03;;
763;SDS011;5393;48.728;9.140;2022-09-09T00:27:25;2.67;;;1.07;;
763;SDS011;5393;48.728;9.140;2022-09-09T00:30:30;2.80;;;1.40;;
763;SDS011;5393;48.728;9.140;2022-09-09T00:33:17;4.40;;;1.20;;
763;SDS011;5393;48.728;9.140;2022-09-09T00:36:07;4.57;;;1.57;;
763;SDS011;5393;48.728;9.140;2022-09-09T00:38:57;2.43;;;1.00;;
763;SDS011;5393;48.728;9.140;2022-09-09T00:42:03;2.80;;;1.10;;
763;SDS011;5393;48.728;9.140;2022-09-09T00:45:02;2.27;;;1.20;;
763;SDS011;5393;48.728;9.140;2022-09-09T00:47:53;3.23;;;0.83;;
763;SDS011;5393;48.728;9.140;2022-09-09T00:50:53;2.57;;;1.00;;
763;SDS011;5393;48.728;9.140;2022-09-09T00:53:59;2.90;;;1.00;;
763;SDS011;5393;48.728;9.140;2022-09-09T00:56:47;3.10;;;0.80;;
763;SDS011;5393;48.728;9.140;2022-09-09T00:59:42;2.40;;;0.90;;
763;SDS011;5393;48.728;9.140;2022-09-09T01:05:58;2.73;;;1.17;;
763;SDS011;5393;48.728;9.140;2022-09-09T01:11:28;2.90;;;1.03;;
763;SDS011;5393;48.728;9.140;2022-09-09T01:20:14;3.00;;;0.90;;
763;SDS011;5393;48.728;9.140;2022-09-09T01:23:05;2.80;;;1.00;;
763;SDS011;5393;48.728;9.140;2022-09-09T01:28:47;1.90;;;1.03;;
763;SDS011;5393;48.728;9.140;2022-09-09T01:31:38;2.83;;;1.50;;
763;SDS011;5393;48.728;9.140;2022-09-09T01:34:23;3.73;;;1.00;;
763;SDS011;5393;48.728;9.140;2022-09-09T01:37:09;2.77;;;1.30;;
763;SDS011;5393;48.728;9.140;2022-09-09T01:39:54;2.97;;;1.03;;
763;SDS011;5393;48.728;9.140;2022-09-09T01:42:39;2.83;;;0.97;;
763;SDS011;5393;48.728;9.140;2022-09-09T01:45:24;2.50;;;0.93;;
763;SDS011;5393;48.728;9.140;2022-09-09T01:48:08;3.90;;;1.00;;
763;SDS011;5393;48.728;9.140;2022-09-09T01:50:53;3.77;;;1.77;;
763;SDS011;5393;48.728;9.140;2022-09-09T01:53:38;2.00;;;1.00;;
763;SDS011;5393;48.728;9.140;2022-09-09T01:59:34;3.23;;;1.03;;
763;SDS011;5393;48.728;9.140;2022-09-09T02:05:43;5.23;;;1.03;;
763;SDS011;5393;48.728;9.140;2022-09-09T02:11:24;3.77;;;1.00;;
763;SDS011;5393;48.728;9.140;2022-09-09T02:14:12;1.67;;;1.00;;
763;SDS011;5393;48.728;9.140;2022-09-09T02:17:07;2.50;;;0.90;;
763;SDS011;5393;48.728;9.140;2022-09-09T02:19:55;1.50;;;0.80;;
763;SDS011;5393;48.728;9.140;2022-09-09T02:22:41;2.13;;;1.30;;
763;SDS011;5393;48.728;9.140;2022-09-09T02:25:28;4.90;;;0.90;;
763;SDS011;5393;48.728;9.140;2022-09-09T02:28:13;2.93;;;0.93;;
763;SDS011;5393;48.728;9.140;2022-09-09T02:30:59;2.90;;;1.03;;
763;SDS011;5393;48.728;9.140;2022-09-09T02:33:47;3.27;;;1.07;;
763;SDS011;5393;48.728;9.140;2022-09-09T02:36:36;3.83;;;1.10;;
763;SDS011;5393;48.728;9.140;2022-09-09T02:39:23;2.17;;;0.77;;
763;SDS011;5393;48.728;9.140;2022-09-09T02:42:08;2.60;;;1.13;;
763;SDS011;5393;48.728;9.140;2022-09-09T02:44:53;2.07;;;0.87;;
763;SDS011;5393;48.728;9.140;2022-09-09T02:50:26;2.40;;;0.97;;
763;SDS011;5393;48.728;9.140;2022-09-09T02:53:16;2.07;;;1.20;;
763;SDS011;5393;48.728;9.140;2022-09-09T02:56:04;2.63;;;0.93;;
763;SDS011;5393;48.728;9.140;2022-09-09T02:58:49;2.83;;;1.00;;
763;SDS011;5393;48.728;9.140;2022-09-09T03:01:35;3.53;;;1.20;;
763;SDS011;5393;48.728;9.140;2022-09-09T03:04:20;1.93;;;0.83;;
763;SDS011;5393;48.728;9.140;2022-09-09T03:07:05;3.03;;;1.03;;
763;SDS011;5393;48.728;9.140;2022-09-09T03:09:49;1.43;;;0.90;;
763;SDS011;5393;48.728;9.140;2022-09-09T03:12:34;2.37;;;0.83;;
763;SDS011;5393;48.728;9.140;2022-09-09T03:15:19;4.63;;;1.43;;
763;SDS011;5393;48.728;9.140;2022-09-09T03:18:04;1.50;;;0.90;;
763;SDS011;5393;48.728;9.140;2022-09-09T03:20:48;2.90;;;1.00;;
763;SDS011;5393;48.728;9.140;2022-09-09T03:23:32;1.77;;;0.77;;
763;SDS011;5393;48.728;9.140;2022-09-09T03:26:17;2.10;;;0.83;;
763;SDS011;5393;48.728;9.140;2022-09-09T03:29:02;2.83;;;0.80;;
763;SDS011;5393;48.728;9.140;2022-09-09T03:31:49;3.40;;;0.90;;
763;SDS011;5393;48.728;9.140;2022-09-09T03:34:34;4.00;;;0.80;;
763;SDS011;5393;48.728;9.140;2022-09-09T03:37:22;2.27;;;1.00;;
763;SDS011;5393;48.728;9.140;2022-09-09T03:40:07;1.80;;;0.80;;
763;SDS011;5393;48.728;9.140;2022-09-09T03:42:53;2.77;;;1.30;;
763;SDS011;5393;48.728;9.140;2022-09-09T03:45:38;2.07;;;0.80;;
763;SDS011;5393;48.728;9.140;2022-09-09T03:48:22;1.70;;;0.70;;
763;SDS011;5393;48.728;9.140;2022-09-09T03:51:08;1.77;;;0.63;;
763;SDS011;5393;48.728;9.140;2022-09-09T03:53:52;1.70;;;0.60;;
763;SDS011;5393;48.728;9.140;2022-09-09T03:56:38;2.80;;;1.00;;
763;SDS011;5393;48.728;9.140;2022-09-09T03:59:25;3.63;;;0.93;;
763;SDS011;5393;48.728;9.140;2022-09-09T04:02:10;1.57;;;0.93;;
763;SDS011;5393;48.728;9.140;2022-09-09T04:04:54;2.23;;;0.97;;
763;SDS011;5393;48.728;9.140;2022-09-09T04:07:40;1.80;;;0.80;;
763;SDS011;5393;48.728;9.140;2022-09-09T04:10:24;3.87;;;1.17;;
763;SDS011;5393;48.728;9.140;2022-09-09T04:13:09;3.00;;;1.30;;
763;SDS011;5393;48.728;9.140;2022-09-09T04:15:57;1.50;;;0.87;;
763;SDS011;5393;48.728;9.140;2022-09-09T04:18:42;2.73;;;0.90;;
763;SDS011;5393;48.728;9.140;2022-09-09T04:21:27;2.53;;;0.90;;
763;SDS011;5393;48.728;9.140;2022-09-09T04:24:12;2.73;;;1.10;;
763;SDS011;5393;48.728;9.140;2022-09-09T04:26:56;3.63;;;0.87;;
763;SDS011;5393;48.728;9.140;2022-09-09T04:29:41;5.20;;;1.13;;
763;SDS011;5393;48.728;9.140;2022-09-09T04:32:25;3.27;;;1.10;;
763;SDS011;5393;48.728;9.140;2022-09-09T04:35:11;2.00;;;1.00;;
763;SDS011;5393;48.728;9.140;2022-09-09T04:37:55;2.27;;;1.00;;
763;SDS011;5393;48.728;9.140;2022-09-09T04:40:46;1.93;;;1.33;;
763;SDS011;5393;48.728;9.140;2022-09-09T04:43:31;1.80;;;0.93;;
763;SDS011;5393;48.728;9.140;2022-09-09T04:46:16;3.70;;;1.20;;
763;SDS011;5393;48.728;9.140;2022-09-09T04:49:01;4.00;;;1.20;;
763;SDS011;5393;48.728;9.140;2022-09-09T04:51:45;3.30;;;1.17;;
763;SDS011;5393;48.728;9.140;2022-09-09T04:54:30;3.83;;;1.50;;
763;SDS011;5393;48.728;9.140;2022-09-09T04:57:16;4.80;;;1.43;;
763;SDS011;5393;48.728;9.140;2022-09-09T05:00:00;2.30;;;1.53;;
763;SDS011;5393;48.728;9.140;2022-09-09T05:02:46;3.33;;;1.10;;
763;SDS011;5393;48.728;9.140;2022-09-09T05:05:31;2.50;;;1.40;;
763;SDS011;5393;48.728;9.140;2022-09-09T05:08:17;2.47;;;1.23;;
763;SDS011;5393;48.728;9.140;2022-09-09T05:11:02;4.93;;;1.40;;
763;SDS011;5393;48.728;9.140;2022-09-09T05:13:47;3.10;;;1.30;;
763;SDS011;5393;48.728;9.140;2022-09-09T05:16:33;6.57;;;1.70;;
763;SDS011;5393;48.728;9.140;2022-09-09T05:19:18;4.53;;;1.03;;
763;SDS011;5393;48.728;9.140;2022-09-09T05:22:03;2.57;;;1.17;;
763;SDS011;5393;48.728;9.140;2022-09-09T05:24:49;3.57;;;1.23;;
763;SDS011;5393;48.728;9.140;2022-09-09T05:27:37;6.03;;;1.30;;
763;SDS011;5393;48.728;9.140;2022-09-09T05:30:21;4.27;;;1.77;;
763;SDS011;5393;48.728;9.140;2022-09-09T05:33:09;2.67;;;1.40;;
763;SDS011;5393;48.728;9.140;2022-09-09T05:35:55;3.50;;;1.43;;
763;SDS011;5393;48.728;9.140;2022-09-09T05:38:40;1.80;;;1.10;;
763;SDS011;5393;48.728;9.140;2022-09-09T05:41:25;2.27;;;1.20;;
763;SDS011;5393;48.728;9.140;2022-09-09T05:44:10;2.87;;;1.30;;
763;SDS011;5393;48.728;9.140;2022-09-09T05:46:54;1.90;;;1.03;;
763;SDS011;5393;48.728;9.140;2022-09-09T05:49:39;3.63;;;1.13;;
763;SDS011;5393;48.728;9.140;2022-09-09T05:52:23;4.60;;;1.40;;
763;SDS011;5393;48.728;9.140;2022-09-09T05:55:09;3.13;;;1.57;;
763;SDS011;5393;48.728;9.140;2022-09-09T05:57:54;5.57;;;1.93;;
763;SDS011;5393;48.728;9.140;2022-09-09T06:00:39;2.27;;;1.20;;
763;SDS011;5393;48.728;9.140;2022-09-09T06:03:24;2.50;;;1.40;;
763;SDS011;5393;48.728;9.140;2022-09-09T06:06:13;3.63;;;1.47;;
763;SDS011;5393;48.728;9.140;2022-09-09T06:08:58;3.47;;;1.40;;
763;SDS011;5393;48.728;9.140;2022-09-09T06:11:42;3.73;;;1.70;;
763;SDS011;5393;48.728;9.140;2022-09-09T06:14:27;5.40;;;1.80;;
763;SDS011;5393;48.728;9.140;2022-09-09T06:17:12;2.93;;;1.60;;
763;SDS011;5393;48.728;9.140;2022-09-09T06:19:57;4.43;;;1.40;;
763;SDS011;5393;48.728;9.140;2022-09-09T06:22:42;3.10;;;1.43;;
763;SDS011;5393;48.728;9.140;2022-09-09T06:25:26;2.30;;;1.13;;
763;SDS011;5393;48.728;9.140;2022-09-09T06:28:11;3.30;;;1.37;;
763;SDS011;5393;48.728;9.140;2022-09-09T06:31:00;5.27;;;1.30;;
763;SDS011;5393;48.728;9.140;2022-09-09T06:33:46;3.57;;;1.83;;
763;SDS011;5393;48.728;9.140;2022-09-09T06:36:34;6.23;;;1.30;;
763;SDS011;5393;48.728;9.140;2022-09-09T06:39:20;1.73;;;1.10;;
763;SDS011;5393;48.728;9.140;2022-09-09T06:42:05;2.37;;;1.00;;
763;SDS011;5393;48.728;9.140;2022-09-09T06:44:52;3.10;;;1.50;;
763;SDS011;5393;48.728;9.140;2022-09-09T06:47:36;3.60;;;1.30;;
763;SDS011;5393;48.728;9.140;2022-09-09T06:50:21;3.60;;;1.37;;
763;SDS011;5393;48.728;9.140;2022-09-09T06:53:05;3.00;;;1.30;;
763;SDS011;5393;48.728;9.140;2022-09-09T06:55:50;2.47;;;1.10;;
763;SDS011;5393;48.728;9.140;2022-09-09T06:58:35;2.30;;;1.10;;
763;SDS011;5393;48.728;9.140;2022-09-09T07:01:21;3.33;;;1.10;;
763;SDS011;5393;48.728;9.140;2022-09-09T07:04:06;2.80;;;1.00;;
763;SDS011;5393;48.728;9.140;2022-09-09T07:06:52;3.87;;;1.17;;
763;SDS011;5393;48.728;9.140;2022-09-09T07:09:36;4.13;;;1.23;;
763;SDS011;5393;48.728;9.140;2022-09-09T07:12:21;3.60;;;1.00;;
763;SDS011;5393;48.728;9.140;2022-09-09T07:15:06;2.93;;;1.10;;
763;SDS011;5393;48.728;9.140;2022-09-09T07:17:50;3.90;;;0.90;;
763;SDS011;5393;48.728;9.140;2022-09-09T07:20:36;4.00;;;1.17;;
763;SDS011;5393;48.728;9.140;2022-09-09T07:23:22;3.33;;;1.23;;
763;SDS011;5393;48.728;9.140;2022-09-09T07:26:07;3.30;;;1.07;;
763;SDS011;5393;48.728;9.140;2022-09-09T07:28:52;2.90;;;1.23;;
763;SDS011;5393;48.728;9.140;2022-09-09T07:31:38;4.60;;;1.30;;
763;SDS011;5393;48.728;9.140;2022-09-09T07:34:23;3.20;;;1.40;;
763;SDS011;5393;48.728;9.140;2022-09-09T07:37:07;2.53;;;1.03;;
763;SDS011;5393;48.728;9.140;2022-09-09T07:39:55;2.57;;;1.27;;
763;SDS011;5393;48.728;9.140;2022-09-09T07:42:39;6.87;;;1.40;;
763;SDS011;5393;48.728;9.140;2022-09-09T07:45:24;2.00;;;1.00;;
763;SDS011;5393;48.728;9.140;2022-09-09T07:48:09;2.93;;;1.20;;
763;SDS011;5393;48.728;9.140;2022-09-09T07:51:02;2.80;;;1.10;;
763;SDS011;5393;48.728;9.140;2022-09-09T07:53:47;2.73;;;1.20;;
763;SDS011;5393;48.728;9.140;2022-09-09T07:56:32;4.57;;;1.10;;
763;SDS011;5393;48.728;9.140;2022-09-09T07:59:17;2.70;;;1.10;;
763;SDS011;5393;48.728;9.140;2022-09-09T08:02:02;4.63;;;1.43;;
763;SDS011;5393;48.728;9.140;2022-09-09T08:04:47;3.03;;;1.37;;
763;SDS011;5393;48.728;9.140;2022-09-09T08:07:31;2.40;;;0.80;;
763;SDS011;5393;48.728;9.140;2022-09-09T08:10:16;3.07;;;1.07;;
763;SDS011;5393;48.728;9.140;2022-09-09T08:13:01;2.93;;;1.00;;
763;SDS011;5393;48.728;9.140;2022-09-09T08:15:45;3.17;;;1.50;;
763;SDS011;5393;48.728;9.140;2022-09-09T08:18:30;4.97;;;1.40;;
763;SDS011;5393;48.728;9.140;2022-09-09T08:21:16;3.10;;;1.20;;
763;SDS011;5393;48.728;9.140;2022-09-09T08:24:01;2.07;;;0.70;;
763;SDS011;5393;48.728;9.140;2022-09-09T08:26:46;4.50;;;1.10;;
763;SDS011;5393;48.728;9.140;2022-09-09T08:29:33;3.30;;;1.40;;
763;SDS011;5393;48.728;9.140;2022-09-09T08:32:17;1.47;;;0.80;;
763;SDS011;5393;48.728;9.140;2022-09-09T08:35:03;2.73;;;1.00;;
763;SDS011;5393;48.728;9.140;2022-09-09T08:37:47;3.50;;;1.10;;
763;SDS011;5393;48.728;9.140;2022-09-09T08:40:32;1.53;;;0.90;;
763;SDS011;5393;48.728;9.140;2022-09-09T08:43:18;3.57;;;1.03;;
763;SDS011;5393;48.728;9.140;2022-09-09T08:46:18;1.93;;;0.80;;
763;SDS011;5393;48.728;9.140;2022-09-09T08:49:24;4.93;;;1.20;;
763;SDS011;5393;48.728;9.140;2022-09-09T08:52:19;5.53;;;1.40;;
763;SDS011;5393;48.728;9.140;2022-09-09T08:55:22;2.30;;;1.00;;
763;SDS011;5393;48.728;9.140;2022-09-09T08:58:11;2.80;;;1.00;;
763;SDS011;5393;48.728;9.140;2022-09-09T09:12:43;5.30;;;1.00;;
763;SDS011;5393;48.728;9.140;2022-09-09T09:15:33;4.33;;;1.47;;
763;SDS011;5393;48.728;9.140;2022-09-09T09:18:20;8.37;;;1.77;;
763;SDS011;5393;48.728;9.140;2022-09-09T09:23:53;7.83;;;1.20;;
763;SDS011;5393;48.728;9.140;2022-09-09T09:26:40;4.23;;;1.30;;
763;SDS011;5393;48.728;9.140;2022-09-09T09:29:27;4.00;;;1.20;;
763;SDS011;5393;48.728;9.140;2022-09-09T09:32:13;4.20;;;1.13;;
763;SDS011;5393;48.728;9.140;2022-09-09T09:34:58;3.40;;;1.03;;
763;SDS011;5393;48.728;9.140;2022-09-09T09:37:44;4.07;;;1.10;;
763;SDS011;5393;48.728;9.140;2022-09-09T09:40:29;7.73;;;1.10;;
763;SDS011;5393;48.728;9.140;2022-09-09T09:43:16;2.93;;;0.87;;
763;SDS011;5393;48.728;9.140;2022-09-09T09:46:04;2.73;;;1.10;;
763;SDS011;5393;48.728;9.140;2022-09-09T09:48:58;3.50;;;1.13;;
763;SDS011;5393;48.728;9.140;2022-09-09T09:51:43;3.20;;;0.80;;
763;SDS011;5393;48.728;9.140;2022-09-09T09:54:29;4.93;;;0.90;;
763;SDS011;5393;48.728;9.140;2022-09-09T09:57:14;2.60;;;0.97;;
763;SDS011;5393;48.728;9.140;2022-09-09T10:00:12;3.00;;;1.10;;
763;SDS011;5393;48.728;9.140;2022-09-09T10:02:59;3.23;;;1.07;;
763;SDS011;5393;48.728;9.140;2022-09-09T10:05:47;2.33;;;0.90;;
763;SDS011;5393;48.728;9.140;2022-09-09T10:08:33;3.50;;;1.40;;
763;SDS011;5393;48.728;9.140;2022-09-09T10:11:25;2.00;;;1.07;;
763;SDS011;5393;48.728;9.140;2022-09-09T10:22:51;7.80;;;1.73;;
763;SDS011;5393;48.728;9.140;2022-09-09T10:25:44;4.90;;;1.50;;
763;SDS011;5393;48.728;9.140;2022-09-09T10:31:33;2.97;;;1.90;;
763;SDS011;5393;48.728;9.140;2022-09-09T10:46:06;3.10;;;1.30;;
763;SDS011;5393;48.728;9.140;2022-09-09T10:52:02;3.10;;;1.40;;
763;SDS011;5393;48.728;9.140;2022-09-09T10:54:56;2.30;;;1.00;;
763;SDS011;5393;48.728;9.140;2022-09-09T11:03:23;3.53;;;1.20;;
763;SDS011;5393;48.728;9.140;2022-09-09T11:06:14;2.17;;;1.00;;
763;SDS011;5393;48.728;9.140;2022-09-09T11:09:01;3.40;;;1.13;;
763;SDS011;5393;48.728;9.140;2022-09-09T11:11:51;3.20;;;1.13;;
763;SDS011;5393;48.728;9.140;2022-09-09T11:14:44;3.00;;;1.17;;
763;SDS011;5393;48.728;9.140;2022-09-09T11:17:33;2.93;;;1.00;;
763;SDS011;5393;48.728;9.140;2022-09-09T11:20:20;3.20;;;1.17;;
763;SDS011;5393;48.728;9.140;2022-09-09T11:23:09;1.43;;;0.80;;
763;SDS011;5393;48.728;9.140;2022-09-09T11:25:56;2.37;;;0.80;;
763;SDS011;5393;48.728;9.140;2022-09-09T11:31:38;2.70;;;0.90;;
763;SDS011;5393;48.728;9.140;2022-09-09T11:40:14;3.77;;;0.70;;
763;SDS011;5393;48.728;9.140;2022-09-09T11:43:00;1.93;;;0.70;;
763;SDS011;5393;48.728;9.140;2022-09-09T11:45:51;1.70;;;0.60;;
763;SDS011;5393;48.728;9.140;2022-09-09T11:48:39;1.80;;;0.70;;
763;SDS011;5393;48.728;9.140;2022-09-09T11:51:30;1.73;;;0.80;;
763;SDS011;5393;48.728;9.140;2022-09-09T11:54:31;1.40;;;0.60;;
763;SDS011;5393;48.728;9.140;2022-09-09T11:57:24;1.97;;;0.50;;
763;SDS011;5393;48.728;9.140;2022-09-09T12:00:27;1.00;;;0.40;;
763;SDS011;5393;48.728;9.140;2022-09-09T12:06:18;1.53;;;0.57;;
763;SDS011;5393;48.728;9.140;2022-09-09T12:12:07;2.27;;;0.80;;
763;SDS011;5393;48.728;9.140;2022-09-09T12:17:53;1.20;;;0.43;;
763;SDS011;5393;48.728;9.140;2022-09-09T12:20:38;3.13;;;0.70;;
763;SDS011;5393;48.728;9.140;2022-09-09T12:23:55;2.70;;;0.63;;
763;SDS011;5393;48.728;9.140;2022-09-09T12:30:23;1.47;;;0.53;;
763;SDS011;5393;48.728;9.140;2022-09-09T12:32:42;1.83;;;0.70;;
763;SDS011;5393;48.728;9.140;2022-09-09T12:35:28;2.23;;;0.50;;
763;SDS011;5393;48.728;9.140;2022-09-09T12:38:15;2.97;;;0.63;;
763;SDS011;5393;48.728;9.140;2022-09-09T12:41:05;2.70;;;0.60;;
763;SDS011;5393;48.728;9.140;2022-09-09T12:43:50;1.90;;;0.60;;
763;SDS011;5393;48.728;9.140;2022-09-09T12:46:39;2.17;;;0.60;;
763;SDS011;5393;48.728;9.140;2022-09-09T12:49:29;5.20;;;0.77;;
763;SDS011;5393;48.728;9.140;2022-09-09T12:55:03;2.47;;;1.00;;
763;SDS011;5393;48.728;9.140;2022-09-09T12:57:49;2.13;;;0.70;;
763;SDS011;5393;48.728;9.140;2022-09-09T13:00:34;2.70;;;0.60;;
763;SDS011;5393;48.728;9.140;2022-09-09T13:03:19;2.77;;;1.00;;
763;SDS011;5393;48.728;9.140;2022-09-09T13:06:11;2.27;;;0.80;;
763;SDS011;5393;48.728;9.140;2022-09-09T13:08:58;2.10;;;0.60;;
763;SDS011;5393;48.728;9.140;2022-09-09T13:11:45;3.27;;;0.70;;
763;SDS011;5393;48.728;9.140;2022-09-09T13:14:32;1.50;;;0.60;;
763;SDS011;5393;48.728;9.140;2022-09-09T13:17:24;3.13;;;0.90;;
763;SDS011;5393;48.728;9.140;2022-09-09T13:20:19;4.33;;;0.97;;
763;SDS011;5393;48.728;9.140;2022-09-09T13:23:04;1.90;;;0.70;;
763;SDS011;5393;48.728;9.140;2022-09-09T13:25:54;1.40;;;0.50;;
763;SDS011;5393;48.728;9.140;2022-09-09T13:28:39;1.60;;;0.60;;
763;SDS011;5393;48.728;9.140;2022-09-09T13:31:33;2.03;;;0.70;;
763;SDS011;5393;48.728;9.140;2022-09-09T13:37:17;3.80;;;0.60;;
763;SDS011;5393;48.728;9.140;2022-09-09T13:40:04;1.97;;;0.50;;
763;SDS011;5393;48.728;9.140;2022-09-09T13:42:56;1.10;;;0.50;;
763;SDS011;5393;48.728;9.140;2022-09-09T13:45:51;1.53;;;0.50;;
763;SDS011;5393;48.728;9.140;2022-09-09T13:48:38;3.73;;;1.00;;
763;SDS011;5393;48.728;9.140;2022-09-09T13:51:33;1.50;;;0.70;;
763;SDS011;5393;48.728;9.140;2022-09-09T13:54:19;2.00;;;0.90;;
763;SDS011;5393;48.728;9.140;2022-09-09T13:57:05;2.80;;;0.80;;
763;SDS011;5393;48.728;9.140;2022-09-09T13:59:50;3.03;;;0.90;;
763;SDS011;5393;48.728;9.140;2022-09-09T14:02:35;2.40;;;0.70;;
763;SDS011;5393;48.728;9.140;2022-09-09T14:05:22;2.20;;;0.73;;
763;SDS011;5393;48.728;9.140;2022-09-09T14:08:07;1.87;;;0.63;;
763;SDS011;5393;48.728;9.140;2022-09-09T14:10:55;2.30;;;0.60;;
763;SDS011;5393;48.728;9.140;2022-09-09T14:13:41;1.53;;;0.70;;
763;SDS011;5393;48.728;9.140;2022-09-09T14:16:26;1.93;;;0.80;;
763;SDS011;5393;48.728;9.140;2022-09-09T14:19:11;1.27;;;0.50;;
763;SDS011;5393;48.728;9.140;2022-09-09T14:21:56;2.90;;;0.67;;
763;SDS011;5393;48.728;9.140;2022-09-09T14:24:41;1.60;;;0.60;;
763;SDS011;5393;48.728;9.140;2022-09-09T14:27:25;1.60;;;0.60;;
763;SDS011;5393;48.728;9.140;2022-09-09T14:30:10;1.80;;;0.63;;
763;SDS011;5393;48.728;9.140;2022-09-09T14:32:55;1.97;;;0.70;;
763;SDS011;5393;48.728;9.140;2022-09-09T14:35:39;1.53;;;0.57;;
763;SDS011;5393;48.728;9.140;2022-09-09T14:38:25;1.73;;;0.67;;
763;SDS011;5393;48.728;9.140;2022-09-09T14:41:14;1.73;;;0.60;;
763;SDS011;5393;48.728;9.140;2022-09-09T14:44:06;1.80;;;0.50;;
763;SDS011;5393;48.728;9.140;2022-09-09T14:46:51;6.60;;;0.90;;
763;SDS011;5393;48.728;9.140;2022-09-09T14:49:36;2.03;;;0.70;;
763;SDS011;5393;48.728;9.140;2022-09-09T14:52:21;1.53;;;0.70;;
763;SDS011;5393;48.728;9.140;2022-09-09T14:55:05;2.13;;;0.70;;
763;SDS011;5393;48.728;9.140;2022-09-09T14:57:51;1.50;;;0.50;;
763;SDS011;5393;48.728;9.140;2022-09-09T15:00:35;1.33;;;0.50;;
763;SDS011;5393;48.728;9.140;2022-09-09T15:03:20;1.23;;;0.50;;
763;SDS011;5393;48.728;9.140;2022-09-09T15:06:10;2.00;;;0.87;;
763;SDS011;5393;48.728;9.140;2022-09-09T15:08:56;2.30;;;0.67;;
763;SDS011;5393;48.728;9.140;2022-09-09T15:11:41;2.50;;;0.90;;
763;SDS011;5393;48.728;9.140;2022-09-09T15:14:27;1.83;;;0.70;;
763;SDS011;5393;48.728;9.140;2022-09-09T15:17:12;2.43;;;0.80;;
763;SDS011;5393;48.728;9.140;2022-09-09T15:19:57;3.60;;;1.03;;
763;SDS011;5393;48.728;9.140;2022-09-09T15:22:41;1.43;;;0.53;;
763;SDS011;5393;48.728;9.140;2022-09-09T15:25:26;2.90;;;0.83;;
763;SDS011;5393;48.728;9.140;2022-09-09T15:28:11;2.10;;;0.87;;
763;SDS011;5393;48.728;9.140;2022-09-09T15:30:56;1.50;;;0.80;;
763;SDS011;5393;48.728;9.140;2022-09-09T15:33:41;2.43;;;1.10;;
763;SDS011;5393;48.728;9.140;2022-09-09T15:39:13;1.80;;;0.60;;
763;SDS011;5393;48.728;9.140;2022-09-09T15:42:01;1.73;;;0.70;;
763;SDS011;5393;48.728;9.140;2022-09-09T15:44:45;1.77;;;0.60;;
763;SDS011;5393;48.728;9.140;2022-09-09T15:47:30;1.90;;;0.57;;
763;SDS011;5393;48.728;9.140;2022-09-09T15:50:15;2.10;;;0.67;;
763;SDS011;5393;48.728;9.140;2022-09-09T15:53:00;1.30;;;0.77;;
763;SDS011;5393;48.728;9.140;2022-09-09T15:55:45;1.40;;;0.60;;
763;SDS011;5393;48.728;9.140;2022-09-09T15:58:30;3.50;;;0.70;;
763;SDS011;5393;48.728;9.140;2022-09-09T16:01:15;2.20;;;0.80;;
763;SDS011;5393;48.728;9.140;2022-09-09T16:04:00;3.17;;;1.03;;
763;SDS011;5393;48.728;9.140;2022-09-09T16:06:44;2.00;;;0.80;;
763;SDS011;5393;48.728;9.140;2022-09-09T16:09:29;2.47;;;0.70;;
763;SDS011;5393;48.728;9.140;2022-09-09T16:12:14;2.43;;;0.80;;
763;SDS011;5393;48.728;9.140;2022-09-09T16:14:59;3.10;;;1.07;;
763;SDS011;5393;48.728;9.140;2022-09-09T16:17:44;2.40;;;0.97;;
763;SDS011;5393;48.728;9.140;2022-09-09T16:20:29;2.80;;;1.13;;
763;SDS011;5393;48.728;9.140;2022-09-09T16:23:15;2.20;;;0.90;;
763;SDS011;5393;48.728;9.140;2022-09-09T16:25:59;1.83;;;0.70;;
763;SDS011;5393;48.728;9.140;2022-09-09T16:28:44;3.30;;;0.70;;
763;SDS011;5393;48.728;9.140;2022-09-09T16:31:32;2.60;;;0.60;;
763;SDS011;5393;48.728;9.140;2022-09-09T16:34:17;3.63;;;0.70;;
763;SDS011;5393;48.728;9.140;2022-09-09T16:37:02;2.80;;;0.83;;
763;SDS011;5393;48.728;9.140;2022-09-09T16:39:47;2.80;;;0.90;;
763;SDS011;5393;48.728;9.140;2022-09-09T16:42:31;6.70;;;0.90;;
763;SDS011;5393;48.728;9.140;2022-09-09T16:45:16;1.67;;;0.70;;
763;SDS011;5393;48.728;9.140;2022-09-09T16:48:01;2.77;;;0.87;;
763;SDS011;5393;48.728;9.140;2022-09-09T16:50:45;1.83;;;0.50;;
763;SDS011;5393;48.728;9.140;2022-09-09T16:53:31;1.57;;;0.53;;
763;SDS011;5393;48.728;9.140;2022-09-09T16:56:17;1.83;;;0.50;;
763;SDS011;5393;48.728;9.140;2022-09-09T16:59:03;1.00;;;0.40;;
763;SDS011;5393;48.728;9.140;2022-09-09T17:01:49;1.20;;;0.50;;
763;SDS011;5393;48.728;9.140;2022-09-09T17:04:34;1.90;;;0.60;;
763;SDS011;5393;48.728;9.140;2022-09-09T17:07:19;1.30;;;0.50;;
763;SDS011;5393;48.728;9.140;2022-09-09T17:10:04;1.30;;;0.60;;
763;SDS011;5393;48.728;9.140;2022-09-09T17:12:49;1.70;;;0.60;;
763;SDS011;5393;48.728;9.140;2022-09-09T17:15:38;2.47;;;0.60;;
763;SDS011;5393;48.728;9.140;2022-09-09T17:18:26;3.00;;;0.60;;
763;SDS011;5393;48.728;9.140;2022-09-09T17:21:12;2.73;;;0.50;;
763;SDS011;5393;48.728;9.140;2022-09-09T17:23:57;1.40;;;0.50;;
763;SDS011;5393;48.728;9.140;2022-09-09T17:26:42;3.07;;;0.77;;
763;SDS011;5393;48.728;9.140;2022-09-09T17:29:28;1.20;;;0.50;;
763;SDS011;5393;48.728;9.140;2022-09-09T17:32:13;3.47;;;0.80;;
763;SDS011;5393;48.728;9.140;2022-09-09T17:34:57;2.07;;;0.50;;
763;SDS011;5393;48.728;9.140;2022-09-09T17:37:42;2.10;;;0.57;;
763;SDS011;5393;48.728;9.140;2022-09-09T17:40:27;1.73;;;0.60;;
763;SDS011;5393;48.728;9.140;2022-09-09T17:43:12;1.53;;;0.60;;
763;SDS011;5393;48.728;9.140;2022-09-09T17:48:58;3.30;;;0.70;;
763;SDS011;5393;48.728;9.140;2022-09-09T17:51:44;1.80;;;0.60;;
763;SDS011;5393;48.728;9.140;2022-09-09T17:54:29;2.00;;;0.80;;
763;SDS011;5393;48.728;9.140;2022-09-09T17:57:13;1.50;;;0.63;;
763;SDS011;5393;48.728;9.140;2022-09-09T18:00:00;1.70;;;0.80;;
763;SDS011;5393;48.728;9.140;2022-09-09T18:02:44;2.60;;;1.07;;
763;SDS011;5393;48.728;9.140;2022-09-09T18:05:30;1.83;;;0.90;;
763;SDS011;5393;48.728;9.140;2022-09-09T18:08:15;2.93;;;0.80;;
763;SDS011;5393;48.728;9.140;2022-09-09T18:11:00;3.30;;;1.60;;
763;SDS011;5393;48.728;9.140;2022-09-09T18:13:49;2.17;;;0.90;;
763;SDS011;5393;48.728;9.140;2022-09-09T18:16:34;1.90;;;0.90;;
763;SDS011;5393;48.728;9.140;2022-09-09T18:19:20;2.50;;;1.20;;
763;SDS011;5393;48.728;9.140;2022-09-09T18:22:05;2.07;;;1.30;;
763;SDS011;5393;48.728;9.140;2022-09-09T18:24:51;2.10;;;0.87;;
763;SDS011;5393;48.728;9.140;2022-09-09T18:27:35;3.67;;;0.90;;
763;SDS011;5393;48.728;9.140;2022-09-09T18:30:20;3.17;;;1.00;;
763;SDS011;5393;48.728;9.140;2022-09-09T18:33:05;2.13;;;0.83;;
763;SDS011;5393;48.728;9.140;2022-09-09T18:35:50;1.60;;;0.70;;
763;SDS011;5393;48.728;9.140;2022-09-09T18:38:34;1.20;;;0.57;;
763;SDS011;5393;48.728;9.140;2022-09-09T18:41:20;1.93;;;0.70;;
763;SDS011;5393;48.728;9.140;2022-09-09T18:44:07;1.47;;;0.60;;
763;SDS011;5393;48.728;9.140;2022-09-09T18:46:53;4.00;;;0.87;;
763;SDS011;5393;48.728;9.140;2022-09-09T18:49:38;1.87;;;0.60;;
763;SDS011;5393;48.728;9.140;2022-09-09T18:52:24;1.70;;;0.77;;
763;SDS011;5393;48.728;9.140;2022-09-09T18:55:09;1.50;;;0.53;;
763;SDS011;5393;48.728;9.140;2022-09-09T18:57:53;1.30;;;0.60;;
763;SDS011;5393;48.728;9.140;2022-09-09T19:00:44;2.67;;;0.80;;
763;SDS011;5393;48.728;9.140;2022-09-09T19:03:29;1.70;;;0.83;;
763;SDS011;5393;48.728;9.140;2022-09-09T19:06:16;2.40;;;0.57;;
763;SDS011;5393;48.728;9.140;2022-09-09T19:09:01;2.07;;;1.20;;
763;SDS011;5393;48.728;9.140;2022-09-09T19:11:46;4.77;;;1.37;;
763;SDS011;5393;48.728;9.140;2022-09-09T19:14:30;3.10;;;0.80;;
763;SDS011;5393;48.728;9.140;2022-09-09T19:17:15;2.23;;;0.80;;
763;SDS011;5393;48.728;9.140;2022-09-09T19:19:59;2.07;;;0.80;;
763;SDS011;5393;48.728;9.140;2022-09-09T19:22:44;3.67;;;1.00;;
763;SDS011;5393;48.728;9.140;2022-09-09T19:25:29;3.20;;;1.33;;
763;SDS011;5393;48.728;9.140;2022-09-09T19:28:16;3.00;;;0.77;;
763;SDS011;5393;48.728;9.140;2022-09-09T19:31:05;4.13;;;0.73;;